sensor_id;sensor_type;location;lat;lon;timestamp;temperature;humidity
49042;DHT22;34859;51.608;11.462;2023-03-02T00:01:45;-3.90;99.90
49042;DHT22;34859;51.608;11.462;2023-03-02T00:04:15;-3.90;99.90
49042;DHT22;34859;51.608;11.462;2023-03-02T00:06:42;-3.90;99.90
49042;DHT22;34859;51.608;11.462;2023-03-02T00:09:08;-3.90;99.90
49042;DHT22;34859;51.608;11.462;2023-03-02T00:11:35;-3.90;99.90
49042;DHT22;34859;51.608;11.462;2023-03-02T00:14:02;-3.70;99.90
49042;DHT22;34859;51.608;11.462;2023-03-02T00:16:29;-3.70;99.90
49042;DHT22;34859;51.608;11.462;2023-03-02T00:18:56;-3.90;99.90
49042;DHT22;34859;51.608;11.462;2023-03-02T00:21:23;-4.00;99.90
49042;DHT22;34859;51.608;11.462;2023-03-02T00:23:50;-4.10;99.90
49042;DHT22;34859;51.608;11.462;2023-03-02T00:26:17;-4.10;99.90
49042;DHT22;34859;51.608;11.462;2023-03-02T00:28:43;-4.20;99.90
49042;DHT22;34859;51.608;11.462;2023-03-02T00:31:10;-4.30;99.90
49042;DHT22;34859;51.608;11.462;2023-03-02T00:33:37;-4.30;99.90
49042;DHT22;34859;51.608;11.462;2023-03-02T00:36:03;-4.20;99.90
49042;DHT22;34859;51.608;11.462;2023-03-02T00:38:30;-4.20;99.90
49042;DHT22;34859;51.608;11.462;2023-03-02T00:40:56;-4.30;99.90
49042;DHT22;34859;51.608;11.462;2023-03-02T00:43:24;-4.30;99.90
49042;DHT22;34859;51.608;11.462;2023-03-02T00:45:53;-4.30;99.90
49042;DHT22;34859;51.608;11.462;2023-03-02T00:48:19;-4.30;99.90
49042;DHT22;34859;51.608;11.462;2023-03-02T00:50:46;-4.30;99.90
49042;DHT22;34859;51.608;11.462;2023-03-02T00:53:13;-4.20;99.90
49042;DHT22;34859;51.608;11.462;2023-03-02T00:55:39;-4.20;99.90
49042;DHT22;34859;51.608;11.462;2023-03-02T00:58:07;-4.30;99.90
49042;DHT22;34859;51.608;11.462;2023-03-02T01:00:33;-4.30;99.90
49042;DHT22;34859;51.608;11.462;2023-03-02T01:03:00;-4.40;99.90
49042;DHT22;34859;51.608;11.462;2023-03-02T01:05:27;-4.40;99.90
49042;DHT22;34859;51.608;11.462;2023-03-02T01:07:54;-4.40;99.90
49042;DHT22;34859;51.608;11.462;2023-03-02T01:10:20;-4.40;99.90
49042;DHT22;34859;51.608;11.462;2023-03-02T01:12:47;-4.40;99.90
49042;DHT22;34859;51.608;11.462;2023-03-02T01:15:14;-4.50;99.90
49042;DHT22;34859;51.608;11.462;2023-03-02T01:17:40;-4.50;99.90
49042;DHT22;34859;51.608;11.462;2023-03-02T01:20:09;-4.50;99.90
49042;DHT22;34859;51.608;11.462;2023-03-02T01:22:36;-4.60;99.90
49042;DHT22;34859;51.608;11.462;2023-03-02T01:25:03;-4.70;99.90
49042;DHT22;34859;51.608;11.462;2023-03-02T01:27:30;-4.60;99.90
49042;DHT22;34859;51.608;11.462;2023-03-02T01:29:59;-4.60;99.90
49042;DHT22;34859;51.608;11.462;2023-03-02T01:32:27;-4.60;99.90
49042;DHT22;34859;51.608;11.462;2023-03-02T01:34:54;-4.60;99.90
49042;DHT22;34859;51.608;11.462;2023-03-02T01:37:21;-4.70;99.90
49042;DHT22;34859;51.608;11.462;2023-03-02T01:39:48;-4.60;99.90
49042;DHT22;34859;51.608;11.462;2023-03-02T01:42:38;-4.60;99.90
49042;DHT22;34859;51.608;11.462;2023-03-02T01:45:05;-4.60;99.90
49042;DHT22;34859;51.608;11.462;2023-03-02T01:47:35;-4.60;99.90
49042;DHT22;34859;51.608;11.462;2023-03-02T01:52:48;-4.70;99.90
49042;DHT22;34859;51.608;11.462;2023-03-02T01:55:16;-4.80;99.90
49042;DHT22;34859;51.608;11.462;2023-03-02T01:57:45;-4.70;99.90
49042;DHT22;34859;51.608;11.462;2023-03-02T02:00:15;-4.80;99.90
49042;DHT22;34859;51.608;11.462;2023-03-02T02:02:44;-4.80;99.90
49042;DHT22;34859;51.608;11.462;2023-03-02T02:05:11;-4.90;99.90
49042;DHT22;34859;51.608;11.462;2023-03-02T02:07:40;-4.90;99.90
49042;DHT22;34859;51.608;11.462;2023-03-02T02:10:07;-5.00;99.90
49042;DHT22;34859;51.608;11.462;2023-03-02T02:12:33;-5.00;99.90
49042;DHT22;34859;51.608;11.462;2023-03-02T02:15:00;-5.10;99.90
49042;DHT22;34859;51.608;11.462;2023-03-02T02:17:29;-5.10;99.90
49042;DHT22;34859;51.608;11.462;2023-03-02T02:25:25;-5.10;99.90
49042;DHT22;34859;51.608;11.462;2023-03-02T02:27:56;-5.20;99.90
49042;DHT22;34859;51.608;11.462;2023-03-02T02:30:23;-5.20;99.90
49042;DHT22;34859;51.608;11.462;2023-03-02T02:32:52;-5.10;99.90
49042;DHT22;34859;51.608;11.462;2023-03-02T02:35:23;-5.10;99.90
49042;DHT22;34859;51.608;11.462;2023-03-02T02:38:01;-5.20;99.90
49042;DHT22;34859;51.608;11.462;2023-03-02T02:43:01;-5.10;99.90
49042;DHT22;34859;51.608;11.462;2023-03-02T02:45:28;-4.90;99.90
49042;DHT22;34859;51.608;11.462;2023-03-02T02:47:54;-4.90;99.90
49042;DHT22;34859;51.608;11.462;2023-03-02T02:50:30;-4.90;99.90
49042;DHT22;34859;51.608;11.462;2023-03-02T02:52:58;-4.90;99.90
49042;DHT22;34859;51.608;11.462;2023-03-02T02:55:27;-5.00;99.90
49042;DHT22;34859;51.608;11.462;2023-03-02T02:57:55;-5.10;99.90
49042;DHT22;34859;51.608;11.462;2023-03-02T03:00:22;-5.20;99.90
49042;DHT22;34859;51.608;11.462;2023-03-02T03:02:54;-5.30;99.90
49042;DHT22;34859;51.608;11.462;2023-03-02T03:05:23;-5.20;99.90
49042;DHT22;34859;51.608;11.462;2023-03-02T03:07:49;-5.30;99.90
49042;DHT22;34859;51.608;11.462;2023-03-02T03:10:18;-5.30;99.90
49042;DHT22;34859;51.608;11.462;2023-03-02T03:12:49;-5.30;99.90
49042;DHT22;34859;51.608;11.462;2023-03-02T03:15:16;-5.20;99.90
49042;DHT22;34859;51.608;11.462;2023-03-02T03:18:01;-5.10;99.90
49042;DHT22;34859;51.608;11.462;2023-03-02T03:20:28;-5.10;99.90
49042;DHT22;34859;51.608;11.462;2023-03-02T03:23:14;-5.10;99.90
49042;DHT22;34859;51.608;11.462;2023-03-02T03:25:41;-4.90;99.90
49042;DHT22;34859;51.608;11.462;2023-03-02T03:28:08;-5.00;99.90
49042;DHT22;34859;51.608;11.462;2023-03-02T03:30:34;-4.90;99.90
49042;DHT22;34859;51.608;11.462;2023-03-02T03:33:01;-4.90;99.90
49042;DHT22;34859;51.608;11.462;2023-03-02T03:35:27;-5.10;99.90
49042;DHT22;34859;51.608;11.462;2023-03-02T03:37:54;-5.20;99.90
49042;DHT22;34859;51.608;11.462;2023-03-02T03:40:21;-5.30;99.90
49042;DHT22;34859;51.608;11.462;2023-03-02T03:42:50;-5.30;99.90
49042;DHT22;34859;51.608;11.462;2023-03-02T03:45:16;-5.30;99.90
49042;DHT22;34859;51.608;11.462;2023-03-02T03:47:44;-5.40;99.90
49042;DHT22;34859;51.608;11.462;2023-03-02T03:50:10;-5.40;99.90
49042;DHT22;34859;51.608;11.462;2023-03-02T03:52:36;-5.50;99.90
49042;DHT22;34859;51.608;11.462;2023-03-02T03:55:03;-5.50;99.90
49042;DHT22;34859;51.608;11.462;2023-03-02T03:57:30;-5.60;99.90
49042;DHT22;34859;51.608;11.462;2023-03-02T03:59:57;-5.70;99.90
49042;DHT22;34859;51.608;11.462;2023-03-02T04:02:23;-5.60;99.90
49042;DHT22;34859;51.608;11.462;2023-03-02T04:04:50;-5.60;99.90
49042;DHT22;34859;51.608;11.462;2023-03-02T04:07:18;-5.60;99.90
49042;DHT22;34859;51.608;11.462;2023-03-02T04:09:44;-5.70;99.90
49042;DHT22;34859;51.608;11.462;2023-03-02T04:12:11;-5.60;99.90
49042;DHT22;34859;51.608;11.462;2023-03-02T04:14:57;-5.70;99.90
49042;DHT22;34859;51.608;11.462;2023-03-02T04:17:43;-5.60;99.90
49042;DHT22;34859;51.608;11.462;2023-03-02T04:20:30;-5.60;99.90
49042;DHT22;34859;51.608;11.462;2023-03-02T04:22:57;-5.60;99.90
49042;DHT22;34859;51.608;11.462;2023-03-02T04:25:25;-5.50;99.90
49042;DHT22;34859;51.608;11.462;2023-03-02T04:27:52;-5.50;99.90
49042;DHT22;34859;51.608;11.462;2023-03-02T04:30:21;-5.40;99.90
49042;DHT22;34859;51.608;11.462;2023-03-02T04:32:49;-5.50;99.90
49042;DHT22;34859;51.608;11.462;2023-03-02T04:35:17;-5.60;99.90
49042;DHT22;34859;51.608;11.462;2023-03-02T04:37:43;-5.70;99.90
49042;DHT22;34859;51.608;11.462;2023-03-02T04:40:11;-5.80;99.90
49042;DHT22;34859;51.608;11.462;2023-03-02T04:42:38;-5.80;99.90
49042;DHT22;34859;51.608;11.462;2023-03-02T04:45:05;-5.80;99.90
49042;DHT22;34859;51.608;11.462;2023-03-02T04:47:31;-5.80;99.90
49042;DHT22;34859;51.608;11.462;2023-03-02T04:49:58;-5.90;99.90
49042;DHT22;34859;51.608;11.462;2023-03-02T04:52:24;-5.90;99.90
49042;DHT22;34859;51.608;11.462;2023-03-02T04:54:51;-6.00;99.90
49042;DHT22;34859;51.608;11.462;2023-03-02T04:57:19;-6.00;99.90
49042;DHT22;34859;51.608;11.462;2023-03-02T04:59:45;-5.90;99.90
49042;DHT22;34859;51.608;11.462;2023-03-02T05:02:12;-5.90;99.90
49042;DHT22;34859;51.608;11.462;2023-03-02T05:04:40;-5.90;99.90
49042;DHT22;34859;51.608;11.462;2023-03-02T05:07:07;-5.80;99.90
49042;DHT22;34859;51.608;11.462;2023-03-02T05:09:33;-5.80;99.90
49042;DHT22;34859;51.608;11.462;2023-03-02T05:12:15;-5.80;99.90
49042;DHT22;34859;51.608;11.462;2023-03-02T05:14:43;-5.80;99.90
49042;DHT22;34859;51.608;11.462;2023-03-02T05:17:10;-5.80;99.90
49042;DHT22;34859;51.608;11.462;2023-03-02T05:19:36;-5.70;99.90
49042;DHT22;34859;51.608;11.462;2023-03-02T05:22:03;-5.80;99.90
49042;DHT22;34859;51.608;11.462;2023-03-02T05:24:30;-5.80;99.90
49042;DHT22;34859;51.608;11.462;2023-03-02T05:26:56;-5.90;99.90
49042;DHT22;34859;51.608;11.462;2023-03-02T05:29:23;-5.90;99.90
49042;DHT22;34859;51.608;11.462;2023-03-02T05:31:50;-6.00;99.90
49042;DHT22;34859;51.608;11.462;2023-03-02T05:34:17;-6.00;99.90
49042;DHT22;34859;51.608;11.462;2023-03-02T05:36:44;-6.00;99.90
49042;DHT22;34859;51.608;11.462;2023-03-02T05:39:11;-6.00;99.90
49042;DHT22;34859;51.608;11.462;2023-03-02T05:41:37;-5.90;99.90
49042;DHT22;34859;51.608;11.462;2023-03-02T05:44:04;-5.90;99.90
49042;DHT22;34859;51.608;11.462;2023-03-02T05:46:34;-5.90;99.90
49042;DHT22;34859;51.608;11.462;2023-03-02T05:49:00;-6.00;99.90
49042;DHT22;34859;51.608;11.462;2023-03-02T05:51:27;-5.90;99.90
49042;DHT22;34859;51.608;11.462;2023-03-02T05:53:54;-6.00;99.90
49042;DHT22;34859;51.608;11.462;2023-03-02T05:56:21;-6.00;99.90
49042;DHT22;34859;51.608;11.462;2023-03-02T05:58:47;-6.00;99.90
49042;DHT22;34859;51.608;11.462;2023-03-02T06:01:14;-6.00;99.90
49042;DHT22;34859;51.608;11.462;2023-03-02T06:03:41;-6.00;99.90
49042;DHT22;34859;51.608;11.462;2023-03-02T06:06:07;-6.00;99.90
49042;DHT22;34859;51.608;11.462;2023-03-02T06:08:38;-6.00;99.90
49042;DHT22;34859;51.608;11.462;2023-03-02T06:11:06;-6.10;99.90
49042;DHT22;34859;51.608;11.462;2023-03-02T06:13:33;-6.10;99.90
49042;DHT22;34859;51.608;11.462;2023-03-02T06:15:59;-6.00;99.90
49042;DHT22;34859;51.608;11.462;2023-03-02T06:18:27;-5.90;99.90
49042;DHT22;34859;51.608;11.462;2023-03-02T06:20:54;-5.80;99.90
49042;DHT22;34859;51.608;11.462;2023-03-02T06:23:21;-5.80;99.90
49042;DHT22;34859;51.608;11.462;2023-03-02T06:25:47;-5.70;99.90
49042;DHT22;34859;51.608;11.462;2023-03-02T06:28:15;-5.60;99.90
49042;DHT22;34859;51.608;11.462;2023-03-02T06:30:41;-5.40;99.90
49042;DHT22;34859;51.608;11.462;2023-03-02T06:33:08;-5.20;99.90
49042;DHT22;34859;51.608;11.462;2023-03-02T06:35:34;-5.20;99.90
49042;DHT22;34859;51.608;11.462;2023-03-02T06:38:01;-5.00;99.90
49042;DHT22;34859;51.608;11.462;2023-03-02T06:40:27;-4.90;99.90
49042;DHT22;34859;51.608;11.462;2023-03-02T06:42:54;-4.90;99.90
49042;DHT22;34859;51.608;11.462;2023-03-02T06:45:21;-4.90;99.90
49042;DHT22;34859;51.608;11.462;2023-03-02T06:47:47;-4.80;99.90
49042;DHT22;34859;51.608;11.462;2023-03-02T06:50:14;-4.80;99.90
49042;DHT22;34859;51.608;11.462;2023-03-02T06:53:00;-4.80;99.90
49042;DHT22;34859;51.608;11.462;2023-03-02T06:55:47;-4.70;99.90
49042;DHT22;34859;51.608;11.462;2023-03-02T06:58:13;-4.60;99.90
49042;DHT22;34859;51.608;11.462;2023-03-02T07:00:40;-4.60;99.90
49042;DHT22;34859;51.608;11.462;2023-03-02T07:03:06;-4.50;99.90
49042;DHT22;34859;51.608;11.462;2023-03-02T07:05:33;-4.30;99.90
49042;DHT22;34859;51.608;11.462;2023-03-02T07:08:01;-4.30;99.90
49042;DHT22;34859;51.608;11.462;2023-03-02T07:10:28;-4.20;99.90
49042;DHT22;34859;51.608;11.462;2023-03-02T07:12:54;-4.20;99.90
49042;DHT22;34859;51.608;11.462;2023-03-02T07:15:21;-4.10;99.90
49042;DHT22;34859;51.608;11.462;2023-03-02T07:17:47;-4.00;99.90
49042;DHT22;34859;51.608;11.462;2023-03-02T07:20:15;-3.80;99.90
49042;DHT22;34859;51.608;11.462;2023-03-02T07:22:42;-3.80;99.90
49042;DHT22;34859;51.608;11.462;2023-03-02T07:25:08;-3.60;99.90
49042;DHT22;34859;51.608;11.462;2023-03-02T07:27:35;-3.60;99.90
49042;DHT22;34859;51.608;11.462;2023-03-02T07:30:02;-3.50;99.90
49042;DHT22;34859;51.608;11.462;2023-03-02T07:32:29;-3.40;99.90
49042;DHT22;34859;51.608;11.462;2023-03-02T07:34:55;-3.40;99.90
49042;DHT22;34859;51.608;11.462;2023-03-02T07:37:22;-3.30;99.90
49042;DHT22;34859;51.608;11.462;2023-03-02T07:39:48;-3.30;99.90
49042;DHT22;34859;51.608;11.462;2023-03-02T07:42:15;-3.10;99.90
49042;DHT22;34859;51.608;11.462;2023-03-02T07:44:42;-3.00;99.90
49042;DHT22;34859;51.608;11.462;2023-03-02T07:47:08;-3.00;99.90
49042;DHT22;34859;51.608;11.462;2023-03-02T07:49:35;-2.90;99.90
49042;DHT22;34859;51.608;11.462;2023-03-02T07:52:02;-2.90;99.90
49042;DHT22;34859;51.608;11.462;2023-03-02T07:54:28;-2.80;99.90
49042;DHT22;34859;51.608;11.462;2023-03-02T07:56:55;-2.70;99.90
49042;DHT22;34859;51.608;11.462;2023-03-02T07:59:22;-2.60;99.90
49042;DHT22;34859;51.608;11.462;2023-03-02T08:01:49;-2.50;99.90
49042;DHT22;34859;51.608;11.462;2023-03-02T08:04:16;-2.30;99.90
49042;DHT22;34859;51.608;11.462;2023-03-02T08:06:43;-2.20;99.90
49042;DHT22;34859;51.608;11.462;2023-03-02T08:09:10;-2.00;99.90
49042;DHT22;34859;51.608;11.462;2023-03-02T08:11:36;-1.90;99.90
49042;DHT22;34859;51.608;11.462;2023-03-02T08:14:03;-1.80;99.90
49042;DHT22;34859;51.608;11.462;2023-03-02T08:16:30;-1.70;99.90
49042;DHT22;34859;51.608;11.462;2023-03-02T08:18:56;-1.60;99.90
49042;DHT22;34859;51.608;11.462;2023-03-02T08:21:24;-1.50;99.90
49042;DHT22;34859;51.608;11.462;2023-03-02T08:23:50;-1.50;99.90
49042;DHT22;34859;51.608;11.462;2023-03-02T08:26:17;-1.40;99.90
49042;DHT22;34859;51.608;11.462;2023-03-02T08:28:44;-1.20;99.90
49042;DHT22;34859;51.608;11.462;2023-03-02T08:31:11;-1.10;99.90
49042;DHT22;34859;51.608;11.462;2023-03-02T08:33:38;-1.00;99.90
49042;DHT22;34859;51.608;11.462;2023-03-02T08:36:24;-0.90;99.90
49042;DHT22;34859;51.608;11.462;2023-03-02T08:38:50;-0.60;99.90
49042;DHT22;34859;51.608;11.462;2023-03-02T08:41:18;-0.60;99.90
49042;DHT22;34859;51.608;11.462;2023-03-02T08:43:47;-0.40;99.90
49042;DHT22;34859;51.608;11.462;2023-03-02T08:46:15;0.00;99.90
49042;DHT22;34859;51.608;11.462;2023-03-02T08:48:41;0.40;99.90
49042;DHT22;34859;51.608;11.462;2023-03-02T08:51:09;0.60;99.90
49042;DHT22;34859;51.608;11.462;2023-03-02T08:53:37;0.70;99.90
49042;DHT22;34859;51.608;11.462;2023-03-02T08:56:04;0.70;99.90
49042;DHT22;34859;51.608;11.462;2023-03-02T08:58:39;0.80;99.90
49042;DHT22;34859;51.608;11.462;2023-03-02T09:01:16;1.10;99.90
49042;DHT22;34859;51.608;11.462;2023-03-02T09:03:43;1.10;99.90
49042;DHT22;34859;51.608;11.462;2023-03-02T09:06:09;1.20;99.90
49042;DHT22;34859;51.608;11.462;2023-03-02T09:08:37;1.30;99.90
49042;DHT22;34859;51.608;11.462;2023-03-02T09:11:03;1.40;99.90
49042;DHT22;34859;51.608;11.462;2023-03-02T09:13:30;1.40;99.90
49042;DHT22;34859;51.608;11.462;2023-03-02T09:15:57;1.50;99.90
49042;DHT22;34859;51.608;11.462;2023-03-02T09:18:23;1.60;99.90
49042;DHT22;34859;51.608;11.462;2023-03-02T09:20:50;1.70;99.90
49042;DHT22;34859;51.608;11.462;2023-03-02T09:23:17;2.10;99.90
49042;DHT22;34859;51.608;11.462;2023-03-02T09:26:04;2.10;99.90
49042;DHT22;34859;51.608;11.462;2023-03-02T09:28:30;2.20;99.90
49042;DHT22;34859;51.608;11.462;2023-03-02T09:30:57;2.30;99.90
49042;DHT22;34859;51.608;11.462;2023-03-02T09:33:24;2.50;99.90
49042;DHT22;34859;51.608;11.462;2023-03-02T09:35:51;2.40;99.90
49042;DHT22;34859;51.608;11.462;2023-03-02T09:38:17;2.60;99.90
49042;DHT22;34859;51.608;11.462;2023-03-02T09:48:35;2.70;99.90
49042;DHT22;34859;51.608;11.462;2023-03-02T09:53:40;2.80;99.90
49042;DHT22;34859;51.608;11.462;2023-03-02T09:56:12;2.90;99.90
49042;DHT22;34859;51.608;11.462;2023-03-02T09:58:39;3.00;99.90
49042;DHT22;34859;51.608;11.462;2023-03-02T10:01:11;3.00;99.90
49042;DHT22;34859;51.608;11.462;2023-03-02T10:03:53;3.20;99.90
49042;DHT22;34859;51.608;11.462;2023-03-02T10:06:39;3.20;99.90
49042;DHT22;34859;51.608;11.462;2023-03-02T10:09:14;3.50;99.90
49042;DHT22;34859;51.608;11.462;2023-03-02T10:11:49;3.50;99.90
49042;DHT22;34859;51.608;11.462;2023-03-02T10:14:22;3.50;99.90
49042;DHT22;34859;51.608;11.462;2023-03-02T10:17:09;3.70;99.90
49042;DHT22;34859;51.608;11.462;2023-03-02T10:19:42;3.70;99.90
49042;DHT22;34859;51.608;11.462;2023-03-02T10:22:28;3.60;99.90
49042;DHT22;34859;51.608;11.462;2023-03-02T10:25:04;3.60;99.90
49042;DHT22;34859;51.608;11.462;2023-03-02T10:27:35;3.80;99.90
49042;DHT22;34859;51.608;11.462;2023-03-02T10:30:10;3.90;99.90
49042;DHT22;34859;51.608;11.462;2023-03-02T10:32:41;3.90;99.90
49042;DHT22;34859;51.608;11.462;2023-03-02T10:35:12;4.00;99.90
49042;DHT22;34859;51.608;11.462;2023-03-02T10:37:39;3.90;99.90
49042;DHT22;34859;51.608;11.462;2023-03-02T10:40:05;3.90;99.90
49042;DHT22;34859;51.608;11.462;2023-03-02T10:42:33;4.00;99.90
49042;DHT22;34859;51.608;11.462;2023-03-02T10:45:10;4.00;99.90
49042;DHT22;34859;51.608;11.462;2023-03-02T10:47:42;4.10;99.90
49042;DHT22;34859;51.608;11.462;2023-03-02T10:50:21;4.10;99.90
49042;DHT22;34859;51.608;11.462;2023-03-02T10:52:49;4.20;99.90
49042;DHT22;34859;51.608;11.462;2023-03-02T10:55:16;4.20;99.90
49042;DHT22;34859;51.608;11.462;2023-03-02T10:57:55;4.30;99.90
49042;DHT22;34859;51.608;11.462;2023-03-02T11:00:37;4.40;99.90
49042;DHT22;34859;51.608;11.462;2023-03-02T11:03:18;4.40;99.90
49042;DHT22;34859;51.608;11.462;2023-03-02T11:05:45;4.50;99.90
49042;DHT22;34859;51.608;11.462;2023-03-02T11:09:01;4.70;99.90
49042;DHT22;34859;51.608;11.462;2023-03-02T11:11:28;4.60;99.90
49042;DHT22;34859;51.608;11.462;2023-03-02T11:13:54;4.70;99.90
49042;DHT22;34859;51.608;11.462;2023-03-02T11:16:24;4.80;99.90
49042;DHT22;34859;51.608;11.462;2023-03-02T11:18:53;4.70;99.90
49042;DHT22;34859;51.608;11.462;2023-03-02T11:24:14;4.80;99.90
49042;DHT22;34859;51.608;11.462;2023-03-02T11:29:19;4.90;99.90
49042;DHT22;34859;51.608;11.462;2023-03-02T11:31:58;4.90;99.90
49042;DHT22;34859;51.608;11.462;2023-03-02T11:34:43;4.90;99.90
49042;DHT22;34859;51.608;11.462;2023-03-02T11:37:16;5.10;99.90
49042;DHT22;34859;51.608;11.462;2023-03-02T11:44:54;5.10;99.90
49042;DHT22;34859;51.608;11.462;2023-03-02T11:47:19;5.30;99.90
49042;DHT22;34859;51.608;11.462;2023-03-02T11:49:48;5.20;99.90
49042;DHT22;34859;51.608;11.462;2023-03-02T11:52:23;5.20;99.90
49042;DHT22;34859;51.608;11.462;2023-03-02T11:57:30;5.40;99.90
49042;DHT22;34859;51.608;11.462;2023-03-02T11:59:57;5.50;99.90
49042;DHT22;34859;51.608;11.462;2023-03-02T12:02:24;5.30;99.90
49042;DHT22;34859;51.608;11.462;2023-03-02T12:05:00;5.20;99.90
49042;DHT22;34859;51.608;11.462;2023-03-02T12:07:27;5.30;99.90
49042;DHT22;34859;51.608;11.462;2023-03-02T12:12:33;5.40;99.90
49042;DHT22;34859;51.608;11.462;2023-03-02T16:52:22;2.20;99.90
49042;DHT22;34859;51.608;11.462;2023-03-02T16:54:49;2.20;99.90
49042;DHT22;34859;51.608;11.462;2023-03-02T16:57:16;2.10;99.90
49042;DHT22;34859;51.608;11.462;2023-03-02T16:59:42;2.10;99.90
49042;DHT22;34859;51.608;11.462;2023-03-02T17:02:09;2.10;99.90
49042;DHT22;34859;51.608;11.462;2023-03-02T17:04:36;2.10;99.90
49042;DHT22;34859;51.608;11.462;2023-03-02T17:07:04;2.20;99.90
49042;DHT22;34859;51.608;11.462;2023-03-02T17:09:35;2.20;99.90
49042;DHT22;34859;51.608;11.462;2023-03-02T17:12:18;2.20;99.90
49042;DHT22;34859;51.608;11.462;2023-03-02T17:15:21;2.20;99.90
49042;DHT22;34859;51.608;11.462;2023-03-02T17:17:48;2.20;99.90
49042;DHT22;34859;51.608;11.462;2023-03-02T17:20:17;2.30;99.90
49042;DHT22;34859;51.608;11.462;2023-03-02T17:23:15;2.30;99.90
49042;DHT22;34859;51.608;11.462;2023-03-02T17:25:41;2.30;99.90
49042;DHT22;34859;51.608;11.462;2023-03-02T17:28:11;2.30;99.90
49042;DHT22;34859;51.608;11.462;2023-03-02T17:30:41;2.30;99.90
49042;DHT22;34859;51.608;11.462;2023-03-02T17:33:08;2.40;99.90
49042;DHT22;34859;51.608;11.462;2023-03-02T17:35:34;2.40;99.90
49042;DHT22;34859;51.608;11.462;2023-03-02T17:38:00;2.40;99.90
49042;DHT22;34859;51.608;11.462;2023-03-02T17:40:27;2.50;99.90
49042;DHT22;34859;51.608;11.462;2023-03-02T17:42:54;2.40;99.90
49042;DHT22;34859;51.608;11.462;2023-03-02T17:45:21;2.50;99.90
49042;DHT22;34859;51.608;11.462;2023-03-02T17:47:49;2.40;99.90
49042;DHT22;34859;51.608;11.462;2023-03-02T17:53:47;2.40;99.90
49042;DHT22;34859;51.608;11.462;2023-03-02T17:56:20;2.40;99.90
49042;DHT22;34859;51.608;11.462;2023-03-02T17:58:57;2.40;99.90
49042;DHT22;34859;51.608;11.462;2023-03-02T18:01:25;2.40;99.90
49042;DHT22;34859;51.608;11.462;2023-03-02T18:03:57;2.40;99.90
49042;DHT22;34859;51.608;11.462;2023-03-02T18:09:28;2.30;99.90
49042;DHT22;34859;51.608;11.462;2023-03-02T18:11:55;2.10;99.90
49042;DHT22;34859;51.608;11.462;2023-03-02T18:14:21;2.10;99.90
49042;DHT22;34859;51.608;11.462;2023-03-02T18:16:48;2.10;99.90
49042;DHT22;34859;51.608;11.462;2023-03-02T18:19:18;2.00;99.90
49042;DHT22;34859;51.608;11.462;2023-03-02T18:21:45;1.90;99.90
49042;DHT22;34859;51.608;11.462;2023-03-02T18:24:11;1.90;99.90
49042;DHT22;34859;51.608;11.462;2023-03-02T18:26:53;1.80;99.90
49042;DHT22;34859;51.608;11.462;2023-03-02T18:29:46;1.80;99.90
49042;DHT22;34859;51.608;11.462;2023-03-02T18:32:54;1.70;99.90
49042;DHT22;34859;51.608;11.462;2023-03-02T18:36:19;1.70;99.90
49042;DHT22;34859;51.608;11.462;2023-03-02T18:39:42;1.60;99.90
49042;DHT22;34859;51.608;11.462;2023-03-02T18:42:59;1.60;99.90
49042;DHT22;34859;51.608;11.462;2023-03-02T18:45:52;1.50;99.90
49042;DHT22;34859;51.608;11.462;2023-03-02T18:59:07;1.30;99.90
49042;DHT22;34859;51.608;11.462;2023-03-02T19:01:52;1.40;99.90
49042;DHT22;34859;51.608;11.462;2023-03-02T19:04:19;1.30;99.90
49042;DHT22;34859;51.608;11.462;2023-03-02T19:07:01;1.20;99.90
49042;DHT22;34859;51.608;11.462;2023-03-02T19:16:27;1.10;99.90
49042;DHT22;34859;51.608;11.462;2023-03-02T19:22:36;1.00;99.90
49042;DHT22;34859;51.608;11.462;2023-03-02T19:25:21;1.10;99.90
49042;DHT22;34859;51.608;11.462;2023-03-02T19:28:16;1.10;99.90
49042;DHT22;34859;51.608;11.462;2023-03-02T19:30:51;1.00;99.90
49042;DHT22;34859;51.608;11.462;2023-03-02T19:34:17;1.00;99.90
49042;DHT22;34859;51.608;11.462;2023-03-02T19:37:12;1.00;99.90
49042;DHT22;34859;51.608;11.462;2023-03-02T19:39:57;1.00;99.90
49042;DHT22;34859;51.608;11.462;2023-03-02T19:43:03;1.00;99.90
49042;DHT22;34859;51.608;11.462;2023-03-02T19:49:01;0.90;99.90
49042;DHT22;34859;51.608;11.462;2023-03-02T19:59:24;0.90;99.90
49042;DHT22;34859;51.608;11.462;2023-03-02T20:05:53;0.90;99.90
49042;DHT22;34859;51.608;11.462;2023-03-02T20:15:45;1.00;99.90
49042;DHT22;34859;51.608;11.462;2023-03-02T20:19:09;1.00;99.90
49042;DHT22;34859;51.608;11.462;2023-03-02T20:25:20;1.00;99.90
49042;DHT22;34859;51.608;11.462;2023-03-02T20:38:47;1.00;99.90
49042;DHT22;34859;51.608;11.462;2023-03-02T20:48:27;0.90;99.90
49042;DHT22;34859;51.608;11.462;2023-03-02T20:50:56;0.90;99.90
49042;DHT22;34859;51.608;11.462;2023-03-02T20:53:49;1.00;99.90
49042;DHT22;34859;51.608;11.462;2023-03-02T20:56:20;0.90;99.90
49042;DHT22;34859;51.608;11.462;2023-03-02T21:02:39;0.80;99.90
49042;DHT22;34859;51.608;11.462;2023-03-02T21:16:23;0.60;99.90
49042;DHT22;34859;51.608;11.462;2023-03-02T21:19:28;0.70;99.90
49042;DHT22;34859;51.608;11.462;2023-03-02T21:22:52;0.70;99.90
49042;DHT22;34859;51.608;11.462;2023-03-02T21:28:55;0.50;99.90
49042;DHT22;34859;51.608;11.462;2023-03-02T21:31:45;0.50;99.90
49042;DHT22;34859;51.608;11.462;2023-03-02T21:37:38;0.40;99.90
49042;DHT22;34859;51.608;11.462;2023-03-02T21:47:35;0.40;99.90
49042;DHT22;34859;51.608;11.462;2023-03-02T21:50:40;0.30;99.90
49042;DHT22;34859;51.608;11.462;2023-03-02T21:53:43;0.40;99.90
49042;DHT22;34859;51.608;11.462;2023-03-02T21:56:33;0.40;99.90
49042;DHT22;34859;51.608;11.462;2023-03-02T21:59:00;0.40;99.90
49042;DHT22;34859;51.608;11.462;2023-03-02T22:02:13;0.30;99.90
49042;DHT22;34859;51.608;11.462;2023-03-02T22:05:17;0.30;99.90
49042;DHT22;34859;51.608;11.462;2023-03-02T22:28:19;0.00;99.90
49042;DHT22;34859;51.608;11.462;2023-03-02T23:22:22;0.00;99.90
49042;DHT22;34859;51.608;11.462;2023-03-02T23:25:46;0.00;99.90
49042;DHT22;34859;51.608;11.462;2023-03-02T23:35:55;0.10;99.90
49042;DHT22;34859;51.608;11.462;2023-03-02T23:42:28;0.20;99.90
49042;DHT22;34859;51.608;11.462;2023-03-02T23:52:31;0.00;99.90
49042;DHT22;34859;51.608;11.462;2023-03-02T23:55:42;-0.10;99.90
49042;DHT22;34859;51.608;11.462;2023-03-02T23:59:10;-0.20;99.90
